createdAt,value
2016-12-11T00:00:57.179Z,0
2016-12-11T00:02:08.364Z,0
2016-12-11T00:03:19.407Z,0
2016-12-11T00:04:30.758Z,0
2016-12-11T00:05:41.987Z,0
2016-12-11T00:06:53.412Z,0
2016-12-11T00:08:04.795Z,0
2016-12-11T00:09:16.056Z,0
2016-12-11T00:10:27.371Z,0
2016-12-11T00:11:38.999Z,0
2016-12-11T00:12:50.022Z,0
2016-12-11T00:14:03.005Z,0
2016-12-11T00:15:14.526Z,0
2016-12-11T00:16:26.115Z,0
2016-12-11T00:17:37.222Z,0
2016-12-11T00:18:48.489Z,0
2016-12-11T00:20:00.002Z,0
2016-12-11T00:21:11.262Z,0
2016-12-11T00:22:22.296Z,0
2016-12-11T00:23:34.260Z,0
2016-12-11T00:24:45.419Z,0
2016-12-11T00:25:56.675Z,0
2016-12-11T00:27:07.738Z,0
2016-12-11T00:28:18.886Z,0
2016-12-11T00:29:29.947Z,0
2016-12-11T00:30:41.091Z,0
2016-12-11T00:31:52.548Z,0
2016-12-11T00:33:03.753Z,0
2016-12-11T00:34:14.848Z,0
2016-12-11T00:35:26.142Z,0
2016-12-11T00:36:37.195Z,0
2016-12-11T00:37:48.495Z,0
2016-12-11T00:38:59.885Z,0
2016-12-11T00:40:11.014Z,0
2016-12-11T00:41:22.511Z,0
2016-12-11T00:42:33.655Z,0
2016-12-11T00:43:45.235Z,0
2016-12-11T00:44:56.531Z,0
2016-12-11T00:46:22.554Z,0
2016-12-11T00:47:33.623Z,0
2016-12-11T00:48:44.830Z,0
2016-12-11T00:49:55.936Z,0
2016-12-11T00:51:07.118Z,0
2016-12-11T00:52:18.198Z,0
2016-12-11T00:53:29.372Z,0
2016-12-11T00:54:40.494Z,0
2016-12-11T00:55:52.530Z,0
2016-12-11T00:57:03.574Z,0
2016-12-11T00:58:14.815Z,0
2016-12-11T00:59:25.955Z,0
2016-12-11T01:00:37.289Z,0
2016-12-11T01:01:48.326Z,0
2016-12-11T01:02:59.515Z,0
2016-12-11T01:04:10.572Z,0
2016-12-11T01:05:22.041Z,0
2016-12-11T01:06:33.058Z,0
2016-12-11T01:07:44.222Z,0
2016-12-11T01:08:55.238Z,0
2016-12-11T01:10:06.470Z,0
2016-12-11T01:11:17.534Z,0
2016-12-11T01:12:28.697Z,0
2016-12-11T01:13:42.018Z,0
2016-12-11T01:14:53.170Z,0
2016-12-11T01:16:04.300Z,0
2016-12-11T01:17:15.469Z,0
2016-12-11T01:18:26.607Z,0
2016-12-11T01:19:37.739Z,0
2016-12-11T01:20:48.796Z,0
2016-12-11T01:22:00.242Z,0
2016-12-11T01:23:11.331Z,0
2016-12-11T01:24:22.542Z,0
2016-12-11T01:25:33.584Z,0
2016-12-11T01:26:44.707Z,0
2016-12-11T01:27:55.735Z,0
2016-12-11T01:29:06.924Z,0
2016-12-11T01:30:17.939Z,0
2016-12-11T01:31:29.121Z,0
2016-12-11T01:32:40.135Z,0
2016-12-11T01:33:51.335Z,0
2016-12-11T01:35:02.356Z,0
2016-12-11T01:36:13.489Z,0
2016-12-11T01:37:24.881Z,0
2016-12-11T01:38:45.192Z,0
2016-12-11T01:39:56.355Z,0
2016-12-11T01:41:07.447Z,0
2016-12-11T01:42:18.913Z,0
2016-12-11T01:43:29.921Z,0
2016-12-11T01:44:41.114Z,0
2016-12-11T01:45:52.719Z,0
2016-12-11T01:47:18.725Z,0
2016-12-11T01:48:30.152Z,0
2016-12-11T01:49:41.285Z,0
2016-12-11T01:50:52.386Z,0
2016-12-11T01:52:03.705Z,0
2016-12-11T01:53:15.107Z,0
2016-12-11T01:54:26.293Z,0
2016-12-11T01:55:37.498Z,0
2016-12-11T01:56:48.513Z,0
2016-12-11T01:57:59.899Z,0
2016-12-11T01:59:11.156Z,0
2016-12-11T02:00:22.325Z,0
2016-12-11T02:01:33.373Z,0
2016-12-11T02:02:44.484Z,0
2016-12-11T02:03:55.735Z,0
2016-12-11T02:05:06.847Z,0
2016-12-11T02:06:18.205Z,0
2016-12-11T02:07:29.348Z,0
2016-12-11T02:08:40.382Z,0
2016-12-11T02:09:51.809Z,0
2016-12-11T02:11:02.831Z,0
2016-12-11T02:12:14.327Z,0
2016-12-11T02:13:25.374Z,0
2016-12-11T02:14:36.511Z,0
2016-12-11T02:15:47.808Z,0
2016-12-11T02:16:58.951Z,0
2016-12-11T02:18:10.309Z,0
2016-12-11T02:19:21.410Z,0
2016-12-11T02:20:32.434Z,0
2016-12-11T02:21:43.831Z,0
2016-12-11T02:22:54.873Z,0
2016-12-11T02:24:06.291Z,0
2016-12-11T02:25:17.403Z,0
2016-12-11T02:26:28.927Z,0
2016-12-11T02:27:42.436Z,0
2016-12-11T02:28:53.566Z,0
2016-12-11T02:30:04.881Z,0
2016-12-11T02:31:16.008Z,0
2016-12-11T02:32:27.057Z,0
2016-12-11T02:33:38.423Z,0
2016-12-11T02:34:49.440Z,0
2016-12-11T02:36:00.861Z,0
2016-12-11T02:37:11.949Z,0
2016-12-11T02:38:23.122Z,0
2016-12-11T02:39:34.478Z,0
2016-12-11T02:40:45.605Z,0
2016-12-11T02:41:56.630Z,0
2016-12-11T02:43:08.073Z,0
2016-12-11T02:44:19.073Z,0
2016-12-11T02:45:30.510Z,0
2016-12-11T02:46:41.515Z,0
2016-12-11T02:47:52.983Z,0
2016-12-11T02:49:04.031Z,0
2016-12-11T02:50:15.234Z,0
2016-12-11T02:51:26.852Z,0
2016-12-11T02:52:37.992Z,0
2016-12-11T02:53:49.047Z,0
2016-12-11T02:55:00.169Z,0
2016-12-11T02:56:11.171Z,0
2016-12-11T02:57:22.536Z,0
2016-12-11T02:58:33.581Z,0
2016-12-11T02:59:44.768Z,0
2016-12-11T03:00:56.035Z,0
2016-12-11T03:02:07.151Z,0
2016-12-11T03:03:18.405Z,0
2016-12-11T03:04:29.596Z,0
2016-12-11T03:05:40.692Z,0
2016-12-11T03:06:51.871Z,0
2016-12-11T03:08:03.141Z,0
2016-12-11T03:09:14.544Z,0
2016-12-11T03:10:25.594Z,0
2016-12-11T03:11:36.831Z,0
2016-12-11T03:12:47.879Z,0
2016-12-11T03:13:59.293Z,0
2016-12-11T03:15:10.616Z,0
2016-12-11T03:16:21.807Z,0
2016-12-11T03:17:32.890Z,0
2016-12-11T03:18:44.049Z,0
2016-12-11T03:19:55.042Z,0
2016-12-11T03:21:06.698Z,0
2016-12-11T03:22:17.732Z,0
2016-12-11T03:23:29.298Z,0
2016-12-11T03:24:40.322Z,0
2016-12-11T03:25:51.433Z,0
2016-12-11T03:27:02.762Z,0
2016-12-11T03:28:13.929Z,0
2016-12-11T03:29:25.236Z,0
2016-12-11T03:30:36.369Z,0
2016-12-11T03:31:47.406Z,0
2016-12-11T03:32:58.768Z,0
2016-12-11T03:34:10.008Z,0
2016-12-11T03:35:21.463Z,0
2016-12-11T03:36:32.588Z,0
2016-12-11T03:37:43.718Z,0
2016-12-11T03:38:55.017Z,0
2016-12-11T03:40:06.559Z,0
2016-12-11T03:41:19.788Z,0
2016-12-11T03:42:30.910Z,0
2016-12-11T03:43:42.531Z,0
2016-12-11T03:44:53.934Z,0
2016-12-11T03:46:05.002Z,0
2016-12-11T03:47:16.168Z,0
2016-12-11T03:48:27.185Z,0
2016-12-11T03:49:38.572Z,0
2016-12-11T03:50:49.850Z,0
2016-12-11T03:52:01.082Z,0
2016-12-11T03:53:12.484Z,0
2016-12-11T03:54:23.624Z,0
2016-12-11T03:55:34.634Z,0
2016-12-11T03:56:46.315Z,0
2016-12-11T03:57:57.433Z,0
2016-12-11T03:59:08.609Z,0
2016-12-11T04:00:19.972Z,0
2016-12-11T04:01:31.099Z,0
2016-12-11T04:02:42.678Z,0
2016-12-11T04:03:53.810Z,0
2016-12-11T04:05:04.873Z,0
2016-12-11T04:06:16.038Z,0
2016-12-11T04:07:27.064Z,0
2016-12-11T04:08:38.828Z,0
2016-12-11T04:09:49.967Z,0
2016-12-11T04:11:01.179Z,0
2016-12-11T04:12:12.316Z,0
2016-12-11T04:13:23.499Z,0
2016-12-11T04:14:34.794Z,0
2016-12-11T04:15:46.174Z,0
2016-12-11T04:16:57.216Z,0
2016-12-11T04:18:08.381Z,0
2016-12-11T04:19:19.366Z,0
2016-12-11T04:20:30.751Z,0
2016-12-11T04:21:42.015Z,0
2016-12-11T04:22:53.213Z,0
2016-12-11T04:24:04.568Z,0
2016-12-11T04:25:15.699Z,0
2016-12-11T04:26:26.989Z,0
2016-12-11T04:27:38.838Z,0
2016-12-11T04:28:49.837Z,0
2016-12-11T04:30:00.981Z,0
2016-12-11T04:31:12.004Z,0
2016-12-11T04:32:23.710Z,0
2016-12-11T04:33:35.040Z,0
2016-12-11T04:34:46.220Z,0
2016-12-11T04:35:57.477Z,0
2016-12-11T04:37:08.725Z,0
2016-12-11T04:38:19.996Z,0
2016-12-11T04:39:31.167Z,0
2016-12-11T04:40:42.496Z,0
2016-12-11T04:41:53.628Z,0
2016-12-11T04:43:04.903Z,0
2016-12-11T04:44:16.348Z,0
2016-12-11T04:45:27.792Z,0
2016-12-11T04:46:39.179Z,0
2016-12-11T04:47:50.189Z,0
2016-12-11T04:49:01.331Z,0
2016-12-11T04:50:12.636Z,0
2016-12-11T04:51:23.896Z,0
2016-12-11T04:52:34.963Z,0
2016-12-11T04:53:46.400Z,0
2016-12-11T04:54:59.839Z,0
2016-12-11T04:56:11.298Z,0
2016-12-11T04:57:22.362Z,0
2016-12-11T04:58:33.514Z,0
2016-12-11T04:59:44.566Z,0
2016-12-11T05:00:56.011Z,0
2016-12-11T05:02:07.293Z,0
2016-12-11T05:03:18.729Z,0
2016-12-11T05:04:29.789Z,0
2016-12-11T05:05:40.932Z,0
2016-12-11T05:06:52.282Z,0
2016-12-11T05:08:03.970Z,0
2016-12-11T05:09:15.300Z,0
2016-12-11T05:10:26.596Z,0
2016-12-11T05:11:37.642Z,0
2016-12-11T05:12:48.784Z,0
2016-12-11T05:14:00.439Z,0
2016-12-11T05:15:11.829Z,0
2016-12-11T05:16:23.246Z,0
2016-12-11T05:17:34.365Z,0
2016-12-11T05:18:45.390Z,0
2016-12-11T05:19:57.031Z,0
2016-12-11T05:21:08.394Z,0
2016-12-11T05:22:19.564Z,0
2016-12-11T05:23:30.603Z,0
2016-12-11T05:24:41.716Z,0
2016-12-11T05:25:52.958Z,0
2016-12-11T05:27:04.381Z,0
2016-12-11T05:28:15.480Z,0
2016-12-11T05:29:26.618Z,0
2016-12-11T05:30:37.958Z,0
2016-12-11T05:31:49.335Z,0
2016-12-11T05:33:00.612Z,0
2016-12-11T05:34:11.799Z,0
2016-12-11T05:35:22.829Z,0
2016-12-11T05:36:34.005Z,0
2016-12-11T05:37:45.264Z,0
2016-12-11T05:38:56.381Z,0
2016-12-11T05:40:08.023Z,0
2016-12-11T05:41:19.194Z,0
2016-12-11T05:42:30.204Z,0
2016-12-11T05:43:41.633Z,0
2016-12-11T05:44:52.721Z,0
2016-12-11T05:46:04.144Z,0
2016-12-11T05:47:15.215Z,0
2016-12-11T05:48:26.343Z,0
2016-12-11T05:49:37.598Z,0
2016-12-11T05:50:48.807Z,0
2016-12-11T05:51:59.907Z,0
2016-12-11T05:53:11.315Z,0
2016-12-11T05:54:22.406Z,0
2016-12-11T05:55:33.781Z,0
2016-12-11T05:56:44.868Z,0
2016-12-11T05:57:56.037Z,0
2016-12-11T05:59:07.320Z,0
2016-12-11T06:00:18.465Z,0
2016-12-11T06:01:29.789Z,0
2016-12-11T06:02:41.265Z,0
2016-12-11T06:03:52.388Z,0
2016-12-11T06:05:03.842Z,0
2016-12-11T06:06:14.864Z,0
2016-12-11T06:07:26.273Z,0
2016-12-11T06:08:39.501Z,0
2016-12-11T06:09:50.671Z,0
2016-12-11T06:11:02.032Z,0
2016-12-11T06:12:13.765Z,0
2016-12-11T06:13:26.122Z,0
2016-12-11T06:14:37.291Z,0
2016-12-11T06:15:48.295Z,0
2016-12-11T06:16:59.418Z,0
2016-12-11T06:18:10.800Z,0
2016-12-11T06:19:22.501Z,0
2016-12-11T06:20:33.593Z,0
2016-12-11T06:21:44.838Z,0
2016-12-11T06:22:56.200Z,0
2016-12-11T06:24:07.352Z,0
2016-12-11T06:25:18.411Z,0
2016-12-11T06:26:29.532Z,0
2016-12-11T06:27:40.968Z,0
2016-12-11T06:28:52.075Z,0
2016-12-11T06:30:03.109Z,0
2016-12-11T06:31:14.507Z,0
2016-12-11T06:32:25.561Z,0
2016-12-11T06:33:37.302Z,0
2016-12-11T06:34:48.654Z,0
2016-12-11T06:35:59.846Z,0
2016-12-11T06:37:11.160Z,0
2016-12-11T06:38:23.170Z,0
2016-12-11T06:39:34.228Z,0
2016-12-11T06:40:45.610Z,0
2016-12-11T06:41:56.654Z,0
2016-12-11T06:43:08.060Z,0
2016-12-11T06:44:19.101Z,0
2016-12-11T06:45:30.266Z,0
2016-12-11T06:46:41.546Z,0
2016-12-11T06:47:52.679Z,0
2016-12-11T06:49:04.008Z,0
2016-12-11T06:50:15.150Z,0
2016-12-11T06:51:26.286Z,0
2016-12-11T06:52:37.634Z,0
2016-12-11T06:53:48.890Z,0
2016-12-11T06:55:00.334Z,0
2016-12-11T06:56:11.345Z,0
2016-12-11T06:57:22.501Z,0
2016-12-11T06:58:33.598Z,4
2016-12-11T06:59:44.788Z,4
2016-12-11T07:00:56.090Z,0
2016-12-11T07:02:07.197Z,4
2016-12-11T07:03:18.519Z,8
2016-12-11T07:04:29.744Z,8
2016-12-11T07:05:40.809Z,8
2016-12-11T07:06:52.189Z,12
2016-12-11T07:08:03.216Z,12
2016-12-11T07:09:14.603Z,12
2016-12-11T07:10:25.731Z,12
2016-12-11T07:11:36.879Z,12
2016-12-11T07:12:48.153Z,20
2016-12-11T07:13:59.579Z,24
2016-12-11T07:15:10.587Z,20
2016-12-11T07:16:21.751Z,28
2016-12-11T07:17:33.059Z,28
2016-12-11T07:18:44.552Z,24
2016-12-11T07:19:55.687Z,32
2016-12-11T07:21:06.873Z,28
2016-12-11T07:22:20.371Z,28
2016-12-11T07:23:31.523Z,48
2016-12-11T07:24:42.778Z,68
2016-12-11T07:25:53.929Z,60
2016-12-11T07:27:05.278Z,92
2016-12-11T07:28:16.443Z,108
2016-12-11T07:29:27.816Z,108
2016-12-11T07:30:39.216Z,100
2016-12-11T07:31:50.308Z,84
2016-12-11T07:33:01.499Z,96
2016-12-11T07:34:12.753Z,164
2016-12-11T07:35:23.916Z,188
2016-12-11T07:36:35.175Z,180
2016-12-11T07:37:46.328Z,172
2016-12-11T07:38:57.337Z,172
2016-12-11T07:40:08.758Z,176
2016-12-11T07:41:19.844Z,152
2016-12-11T07:42:31.233Z,156
2016-12-11T07:43:42.490Z,180
2016-12-11T07:44:53.670Z,152
2016-12-11T07:46:04.670Z,204
2016-12-11T07:47:17.099Z,224
2016-12-11T07:48:28.371Z,252
2016-12-11T07:49:39.491Z,284
2016-12-11T07:50:50.521Z,348
2016-12-11T07:52:01.692Z,360
2016-12-11T07:53:13.078Z,332
2016-12-11T07:54:24.504Z,300
2016-12-11T07:55:35.507Z,372
2016-12-11T07:56:46.721Z,416
2016-12-11T07:57:57.984Z,440
2016-12-11T07:59:09.164Z,472
2016-12-11T08:00:20.668Z,384
2016-12-11T08:01:31.950Z,388
2016-12-11T08:02:43.196Z,432
2016-12-11T08:03:54.461Z,468
2016-12-11T08:05:05.625Z,504
2016-12-11T08:06:17.031Z,364
2016-12-11T08:07:28.061Z,404
2016-12-11T08:08:39.545Z,472
2016-12-11T08:09:53.762Z,516
2016-12-11T08:11:08.639Z,376
2016-12-11T08:12:26.937Z,412
2016-12-11T08:13:48.103Z,472
2016-12-11T08:15:43.306Z,488
2016-12-11T08:17:22.671Z,460
2016-12-11T08:19:02.776Z,536
2016-12-11T08:21:00.259Z,648
2016-12-11T08:22:34.023Z,620
2016-12-11T08:24:07.323Z,520
2016-12-11T08:26:06.140Z,468
2016-12-11T08:27:44.719Z,488
2016-12-11T08:29:18.304Z,532
2016-12-11T08:30:50.398Z,500
2016-12-11T08:32:22.258Z,596
2016-12-11T08:33:55.155Z,688
2016-12-11T08:35:07.486Z,812
2016-12-11T08:36:39.204Z,828
2016-12-11T08:38:10.941Z,1028
2016-12-11T08:39:42.226Z,1164
2016-12-11T08:41:13.616Z,1084
2016-12-11T08:42:44.589Z,1108
2016-12-11T08:44:18.387Z,1020
2016-12-11T08:45:49.814Z,1592
2016-12-11T08:47:02.277Z,1692
2016-12-11T08:48:59.147Z,1500
2016-12-11T08:50:33.842Z,1240
2016-12-11T08:51:59.964Z,1244
2016-12-11T08:53:12.161Z,1132
2016-12-11T08:54:44.953Z,876
2016-12-11T08:56:43.966Z,1256
2016-12-11T08:58:17.245Z,1340
2016-12-11T08:59:49.240Z,1244
2016-12-11T09:01:22.808Z,1724
2016-12-11T09:02:48.550Z,1860
2016-12-11T09:04:00.522Z,1452
2016-12-11T09:05:32.221Z,1188
2016-12-11T09:07:03.411Z,1136
2016-12-11T09:08:29.702Z,1032
2016-12-11T09:09:42.965Z,968
2016-12-11T09:11:14.502Z,892
2016-12-11T09:12:46.158Z,1088
2016-12-11T09:14:17.305Z,876
2016-12-11T09:15:43.534Z,648
2016-12-11T09:16:55.256Z,668
2016-12-11T09:18:26.942Z,964
2016-12-11T09:19:58.702Z,1500
2016-12-11T09:21:30.403Z,1556
2016-12-11T09:23:01.760Z,1380
2016-12-11T09:24:14.257Z,1076
2016-12-11T09:26:07.883Z,956
2016-12-11T09:27:42.454Z,1108
2016-12-11T09:29:16.781Z,1332
2016-12-11T09:30:51.635Z,1812
2016-12-11T09:32:25.619Z,1956
2016-12-11T09:34:00.111Z,1784
2016-12-11T09:35:35.172Z,1728
2016-12-11T09:37:30.993Z,1168
2016-12-11T09:39:06.209Z,1064
2016-12-11T09:40:40.943Z,1044
2016-12-11T09:42:15.687Z,1224
2016-12-11T09:43:50.232Z,1184
2016-12-11T09:45:25.300Z,1228
2016-12-11T09:47:18.957Z,1276
2016-12-11T09:48:53.368Z,964
2016-12-11T09:50:27.037Z,1008
2016-12-11T09:52:01.917Z,840
2016-12-11T09:53:36.330Z,664
2016-12-11T09:55:10.154Z,788
2016-12-11T09:56:44.261Z,792
2016-12-11T09:58:18.241Z,804
2016-12-11T09:59:52.769Z,836
2016-12-11T10:01:46.323Z,840
2016-12-11T10:03:20.339Z,844
2016-12-11T10:04:54.707Z,820
2016-12-11T10:06:30.975Z,736
2016-12-11T10:08:33.569Z,580
2016-12-11T10:10:33.490Z,536
2016-12-11T10:12:11.728Z,456
2016-12-11T10:14:07.219Z,428
2016-12-11T10:15:52.093Z,392
2016-12-11T10:17:26.164Z,388
2016-12-11T10:19:20.189Z,396
2016-12-11T10:20:56.107Z,424
2016-12-11T10:23:02.634Z,804
2016-12-11T10:24:37.112Z,1152
2016-12-11T10:26:11.629Z,1308
2016-12-11T10:27:41.317Z,1428
2016-12-11T10:29:15.400Z,1796
2016-12-11T10:30:52.086Z,2144
2016-12-11T10:32:27.278Z,2020
2016-12-11T10:34:02.575Z,1676
2016-12-11T10:35:56.092Z,1768
2016-12-11T10:37:29.820Z,1640
2016-12-11T10:39:03.780Z,1340
2016-12-11T10:40:37.773Z,1400
2016-12-11T10:42:11.816Z,1644
2016-12-11T10:43:46.741Z,1944
2016-12-11T10:45:23.688Z,2100
2016-12-11T10:46:58.114Z,1980
2016-12-11T10:48:27.419Z,2044
2016-12-11T10:50:01.215Z,1836
2016-12-11T10:51:34.888Z,1976
2016-12-11T10:53:09.410Z,2004
2016-12-11T10:55:04.267Z,1868
2016-12-11T10:56:38.335Z,1676
2016-12-11T10:58:13.411Z,1624
2016-12-11T10:59:47.784Z,1572
2016-12-11T11:01:22.899Z,1824
2016-12-11T11:02:56.903Z,2396
2016-12-11T11:04:30.814Z,2692
2016-12-11T11:06:05.298Z,2752
2016-12-11T11:07:58.499Z,2372
2016-12-11T11:09:32.752Z,2528
2016-12-11T11:11:06.521Z,2712
2016-12-11T11:12:41.545Z,2792
2016-12-11T11:14:16.298Z,2244
2016-12-11T11:15:53.227Z,2040
2016-12-11T11:17:54.286Z,2008
2016-12-11T11:19:30.440Z,1852
2016-12-11T11:21:24.345Z,2012
2016-12-11T11:22:58.034Z,2592
2016-12-11T11:24:32.364Z,2504
2016-12-11T11:26:06.443Z,2180
2016-12-11T11:27:40.331Z,2296
2016-12-11T11:29:14.667Z,2440
2016-12-11T11:30:49.105Z,2352
2016-12-11T11:32:23.060Z,2408
2016-12-11T11:33:56.976Z,1800
2016-12-11T11:35:26.391Z,1744
2016-12-11T11:36:59.854Z,1492
2016-12-11T11:38:35.353Z,1600
2016-12-11T11:40:09.910Z,1636
2016-12-11T11:41:44.777Z,1836
2016-12-11T11:43:18.863Z,1876
2016-12-11T11:44:53.868Z,2072
2016-12-11T11:46:48.563Z,1980
2016-12-11T11:48:22.570Z,2512
2016-12-11T11:49:56.661Z,2240
2016-12-11T11:51:31.539Z,2328
2016-12-11T11:53:05.277Z,2924
2016-12-11T11:54:40.614Z,2220
2016-12-11T11:56:14.877Z,1684
2016-12-11T11:57:49.158Z,1580
2016-12-11T11:59:23.199Z,1452
2016-12-11T12:00:57.489Z,1384
2016-12-11T12:02:53.257Z,1304
2016-12-11T12:04:27.432Z,1620
2016-12-11T12:06:01.627Z,1432
2016-12-11T12:07:36.631Z,1528
2016-12-11T12:09:10.222Z,1236
2016-12-11T12:10:40.798Z,1288
2016-12-11T12:12:17.724Z,828
2016-12-11T12:13:52.067Z,724
2016-12-11T12:15:26.756Z,852
2016-12-11T12:17:21.040Z,820
2016-12-11T12:18:55.308Z,660
2016-12-11T12:20:29.390Z,668
2016-12-11T12:22:04.106Z,696
2016-12-11T12:23:38.258Z,808
2016-12-11T12:25:12.008Z,888
2016-12-11T12:26:45.984Z,1128
2016-12-11T12:28:19.883Z,896
2016-12-11T12:29:54.289Z,648
2016-12-11T12:31:27.775Z,500
2016-12-11T12:33:02.130Z,424
2016-12-11T12:35:31.744Z,508
2016-12-11T12:37:06.233Z,620
2016-12-11T12:38:40.329Z,544
2016-12-11T12:40:15.102Z,704
2016-12-11T12:41:51.613Z,768
2016-12-11T12:43:46.607Z,1072
2016-12-11T12:45:21.730Z,1456
2016-12-11T12:46:55.684Z,1788
2016-12-11T12:48:30.265Z,1956
2016-12-11T12:50:08.145Z,2032
2016-12-11T12:51:42.103Z,2024
2016-12-11T12:53:16.548Z,2036
2016-12-11T12:55:10.299Z,1760
2016-12-11T12:56:46.604Z,1856
2016-12-11T12:58:21.517Z,1976
2016-12-11T12:59:55.986Z,1748
2016-12-11T13:01:30.453Z,1528
2016-12-11T13:03:05.950Z,1732
2016-12-11T13:04:35.282Z,1952
2016-12-11T13:06:09.678Z,1768
2016-12-11T13:07:40.226Z,1308
2016-12-11T13:09:49.920Z,1424
2016-12-11T13:11:24.256Z,1420
2016-12-11T13:12:58.464Z,1224
2016-12-11T13:14:31.996Z,1012
2016-12-11T13:16:06.771Z,800
2016-12-11T13:17:40.352Z,836
2016-12-11T13:19:14.063Z,792
2016-12-11T13:20:48.545Z,928
2016-12-11T13:22:42.311Z,1196
2016-12-11T13:24:16.178Z,1080
2016-12-11T13:25:50.210Z,788
2016-12-11T13:27:24.126Z,1004
2016-12-11T13:28:58.202Z,1300
2016-12-11T13:30:32.440Z,1280
2016-12-11T13:32:05.913Z,1288
2016-12-11T13:33:41.046Z,1148
2016-12-11T13:35:14.891Z,1112
2016-12-11T13:36:49.467Z,1120
2016-12-11T13:38:43.645Z,1016
2016-12-11T13:40:17.501Z,1040
2016-12-11T13:41:51.519Z,1084
2016-12-11T13:43:27.645Z,1124
2016-12-11T13:45:02.116Z,1060
2016-12-11T13:46:35.881Z,1008
2016-12-11T13:48:10.109Z,980
2016-12-11T13:49:43.851Z,964
2016-12-11T13:51:17.840Z,1000
2016-12-11T13:53:11.123Z,1100
2016-12-11T13:54:40.250Z,1144
2016-12-11T13:55:55.361Z,1176
2016-12-11T13:57:29.707Z,1200
2016-12-11T13:59:03.927Z,1092
2016-12-11T14:01:05.256Z,1024
2016-12-11T14:02:39.233Z,1000
2016-12-11T14:04:12.819Z,908
2016-12-11T14:05:46.470Z,1016
2016-12-11T14:07:20.522Z,1012
2016-12-11T14:08:50.675Z,1000
2016-12-11T14:10:24.335Z,980
2016-12-11T14:11:58.076Z,972
2016-12-11T14:13:32.369Z,824
2016-12-11T14:15:06.024Z,776
2016-12-11T14:16:40.842Z,860
2016-12-11T14:18:33.953Z,972
2016-12-11T14:20:08.138Z,956
2016-12-11T14:21:42.507Z,892
2016-12-11T14:23:12.254Z,872
2016-12-11T14:24:46.277Z,816
2016-12-11T14:26:20.019Z,848
2016-12-11T14:27:54.085Z,820
2016-12-11T14:29:23.439Z,736
2016-12-11T14:30:57.965Z,620
2016-12-11T14:32:32.030Z,564
2016-12-11T14:34:05.770Z,424
2016-12-11T14:35:39.750Z,512
2016-12-11T14:37:14.151Z,484
2016-12-11T14:38:49.131Z,448
2016-12-11T14:40:24.589Z,452
2016-12-11T14:41:58.410Z,372
2016-12-11T14:43:32.174Z,296
2016-12-11T14:45:25.450Z,264
2016-12-11T14:46:59.523Z,200
2016-12-11T14:48:33.438Z,204
2016-12-11T14:50:08.251Z,208
2016-12-11T14:51:42.512Z,180
2016-12-11T14:53:15.978Z,132
2016-12-11T14:54:44.832Z,152
2016-12-11T14:56:21.945Z,116
2016-12-11T14:57:56.067Z,104
2016-12-11T14:59:30.468Z,88
2016-12-11T15:01:04.011Z,72
2016-12-11T15:02:38.872Z,60
2016-12-11T15:04:32.634Z,72
2016-12-11T15:06:06.691Z,84
2016-12-11T15:07:47.408Z,64
2016-12-11T15:09:17.601Z,56
2016-12-11T15:10:52.405Z,56
2016-12-11T15:12:26.935Z,44
2016-12-11T15:14:27.508Z,24
2016-12-11T15:16:01.658Z,20
2016-12-11T15:17:35.797Z,20
2016-12-11T15:19:09.398Z,28
2016-12-11T15:20:39.813Z,24
2016-12-11T15:22:15.846Z,16
2016-12-11T15:23:50.279Z,16
2016-12-11T15:25:43.751Z,12
2016-12-11T15:27:18.400Z,12
2016-12-11T15:28:52.148Z,12
2016-12-11T15:30:25.769Z,12
2016-12-11T15:32:03.637Z,8
2016-12-11T15:33:37.956Z,8
2016-12-11T15:35:11.993Z,8
2016-12-11T15:36:45.981Z,4
2016-12-11T15:38:14.648Z,4
2016-12-11T15:39:49.580Z,4
2016-12-11T15:41:23.237Z,4
2016-12-11T15:43:18.307Z,0
2016-12-11T15:44:54.214Z,0
2016-12-11T15:46:27.964Z,0
2016-12-11T15:48:02.698Z,0
2016-12-11T15:49:38.265Z,0
2016-12-11T15:51:08.521Z,0
2016-12-11T15:52:42.540Z,0
2016-12-11T15:54:16.863Z,0
2016-12-11T15:55:50.670Z,0
2016-12-11T15:57:24.512Z,0
2016-12-11T15:58:58.967Z,0
2016-12-11T16:00:52.072Z,0
2016-12-11T16:02:26.419Z,0
2016-12-11T16:04:01.174Z,0
2016-12-11T16:05:58.669Z,0
2016-12-11T16:07:44.177Z,0
2016-12-11T16:09:38.506Z,0
2016-12-11T16:10:53.757Z,0
2016-12-11T16:12:49.023Z,0
2016-12-11T16:14:32.438Z,0
2016-12-11T16:16:32.321Z,0
2016-12-11T16:18:08.089Z,0
2016-12-11T16:19:42.696Z,0
2016-12-11T16:21:11.867Z,0
2016-12-11T16:22:46.069Z,0
2016-12-11T16:24:20.371Z,0
2016-12-11T16:25:54.401Z,0
2016-12-11T16:27:48.300Z,0
2016-12-11T16:29:17.255Z,0
2016-12-11T16:30:31.978Z,0
2016-12-11T16:32:06.061Z,0
2016-12-11T16:33:39.949Z,0
2016-12-11T16:35:34.308Z,0
2016-12-11T16:37:09.241Z,0
2016-12-11T16:38:43.796Z,0
2016-12-11T16:40:19.925Z,0
2016-12-11T16:41:50.502Z,0
2016-12-11T16:43:24.822Z,0
2016-12-11T16:44:59.026Z,0
2016-12-11T16:46:54.790Z,0
2016-12-11T16:48:29.362Z,0
2016-12-11T16:50:05.856Z,0
2016-12-11T16:51:40.196Z,0
2016-12-11T16:53:14.223Z,0
2016-12-11T16:54:48.155Z,0
2016-12-11T16:56:21.916Z,0
2016-12-11T16:57:55.877Z,0
2016-12-11T16:59:30.237Z,0
2016-12-11T17:01:04.357Z,0
2016-12-11T17:02:59.780Z,0
2016-12-11T17:04:34.262Z,0
2016-12-11T17:06:08.493Z,0
2016-12-11T17:07:42.294Z,0
2016-12-11T17:09:15.995Z,0
2016-12-11T17:10:49.784Z,0
2016-12-11T17:12:24.490Z,0
2016-12-11T17:13:59.206Z,0
2016-12-11T17:15:32.908Z,0
2016-12-11T17:17:26.004Z,0
2016-12-11T17:19:00.342Z,0
2016-12-11T17:20:34.246Z,0
2016-12-11T17:22:03.345Z,0
2016-12-11T17:23:38.397Z,0
2016-12-11T17:25:14.277Z,0
2016-12-11T17:26:48.905Z,0
2016-12-11T17:28:22.722Z,0
2016-12-11T17:29:56.939Z,0
2016-12-11T17:31:29.125Z,0
2016-12-11T17:33:03.334Z,0
2016-12-11T17:34:39.570Z,0
2016-12-11T17:36:32.509Z,0
2016-12-11T17:38:07.787Z,0
2016-12-11T17:39:42.058Z,0
2016-12-11T17:41:17.012Z,0
2016-12-11T17:42:51.394Z,0
2016-12-11T17:44:25.485Z,0
2016-12-11T17:45:59.690Z,0
2016-12-11T17:47:54.193Z,0
2016-12-11T17:49:28.274Z,0
2016-12-11T17:51:06.356Z,0
2016-12-11T17:52:42.747Z,0
2016-12-11T17:54:37.824Z,0
2016-12-11T17:56:11.687Z,0
2016-12-11T17:57:45.647Z,0
2016-12-11T17:59:19.666Z,0
2016-12-11T18:00:55.092Z,0
2016-12-11T18:02:29.417Z,0
2016-12-11T18:04:03.892Z,0
2016-12-11T18:05:38.276Z,0
2016-12-11T18:07:13.040Z,0
2016-12-11T18:08:46.580Z,0
2016-12-11T18:10:21.230Z,0
2016-12-11T18:11:57.233Z,0
2016-12-11T18:13:31.478Z,0
2016-12-11T18:15:06.600Z,0
2016-12-11T18:17:01.711Z,0
2016-12-11T18:18:39.179Z,0
2016-12-11T18:20:14.294Z,0
2016-12-11T18:21:48.547Z,0
2016-12-11T18:23:22.678Z,0
2016-12-11T18:25:15.453Z,0
2016-12-11T18:26:49.931Z,0
2016-12-11T18:28:24.356Z,0
2016-12-11T18:29:59.473Z,0
2016-12-11T18:31:33.176Z,0
2016-12-11T18:33:07.658Z,0
2016-12-11T18:34:41.531Z,0
2016-12-11T18:36:15.545Z,0
2016-12-11T18:37:49.905Z,0
2016-12-11T18:39:43.378Z,0
2016-12-11T18:41:17.735Z,0
2016-12-11T18:42:54.359Z,0
2016-12-11T18:44:28.078Z,0
2016-12-11T18:46:03.078Z,0
2016-12-11T18:47:37.413Z,0
2016-12-11T18:49:11.424Z,0
2016-12-11T18:51:06.214Z,0
2016-12-11T18:52:41.620Z,0
2016-12-11T18:54:15.379Z,0
2016-12-11T18:55:49.820Z,0
2016-12-11T18:57:24.600Z,0
2016-12-11T18:58:59.852Z,0
2016-12-11T19:00:34.210Z,0
2016-12-11T19:02:28.222Z,0
2016-12-11T19:03:42.968Z,0
2016-12-11T19:05:17.871Z,0
2016-12-11T19:07:07.497Z,0
2016-12-11T19:08:23.013Z,0
2016-12-11T19:10:18.009Z,0
2016-12-11T19:11:52.083Z,0
2016-12-11T19:13:30.359Z,0
2016-12-11T19:15:05.070Z,0
2016-12-11T19:16:40.212Z,0
2016-12-11T19:18:34.101Z,0
2016-12-11T19:20:09.214Z,0
2016-12-11T19:21:44.681Z,0
2016-12-11T19:23:18.498Z,0
2016-12-11T19:24:51.988Z,0
2016-12-11T19:26:27.291Z,0
2016-12-11T19:28:02.255Z,0
2016-12-11T19:29:55.923Z,0
2016-12-11T19:31:30.089Z,0
2016-12-11T19:33:04.577Z,0
2016-12-11T19:34:33.198Z,0
2016-12-11T19:36:09.897Z,0
2016-12-11T19:37:25.085Z,0
2016-12-11T19:39:19.692Z,0
2016-12-11T19:40:55.110Z,0
2016-12-11T19:42:30.034Z,0
2016-12-11T19:44:04.526Z,0
2016-12-11T19:45:39.169Z,0
2016-12-11T19:47:13.594Z,0
2016-12-11T19:48:48.094Z,0
2016-12-11T19:50:22.394Z,0
2016-12-11T19:52:16.571Z,0
2016-12-11T19:53:52.435Z,0
2016-12-11T19:55:26.646Z,0
2016-12-11T19:57:03.084Z,0
2016-12-11T19:58:38.639Z,0
2016-12-11T20:00:09.639Z,0
2016-12-11T20:02:04.091Z,0
2016-12-11T20:03:40.439Z,0
2016-12-11T20:05:16.284Z,0
2016-12-11T20:06:54.004Z,0
2016-12-11T20:08:30.189Z,0